Time;durP1;ratioP1;P1;durP2;ratioP2;P2;SDS_P1;SDS_P2;PMS_P1;PMS_P2;Temp;Humidity;BMP_temperature;BMP_pressure;BME280_temperature;BME280_humidity;BME280_pressure;Samples;Min_cycle;Max_cycle;Signal;HPM_P1;HPM_P2
2023/06/02 00:03:30;;;;;;;4.85;4.43;;;;;;;;;;9492113;30;20602;-63
2023/06/02 00:08:25;;;;;;;8.77;6.67;;;;;;;;;;9491040;30;20509;-65
2023/06/02 00:13:19;;;;;;;8.13;5.30;;;;;;;;;;9492352;30;20118;-64
2023/06/02 00:18:13;;;;;;;5.78;5.18;;;;;;;;;;9485622;30;20072;-64
2023/06/02 00:23:10;;;;;;;6.60;4.97;;;;;;;;;;9497300;30;20060;-63
2023/06/02 00:28:03;;;;;;;8.80;5.63;;;;;;;;;;9500098;30;20118;-63
2023/06/02 00:32:57;;;;;;;8.15;5.28;;;;;;;;;;9493371;30;20628;-63
2023/06/02 00:37:52;;;;;;;5.25;4.68;;;;;;;;;;9499058;30;20091;-63
2023/06/02 00:42:45;;;;;;;7.90;6.63;;;;;;;;;;9501569;30;20121;-63
2023/06/02 00:47:38;;;;;;;7.20;5.28;;;;;;;;;;9498613;30;20056;-64
2023/06/02 00:52:34;;;;;;;9.60;5.60;;;;;;;;;;9506345;30;20056;-63
2023/06/02 00:57:28;;;;;;;5.88;5.28;;;;;;;;;;9504675;30;20044;-63
2023/06/02 01:02:22;;;;;;;7.22;5.82;;;;;;;;;;9496741;30;20064;-63
2023/06/02 01:07:22;;;;;;;6.95;5.60;;;;;;;;;;9505978;30;20059;-63
2023/06/02 01:12:18;;;;;;;12.55;9.07;;;;;;;;;;9504675;30;20056;-63
2023/06/02 01:17:11;;;;;;;10.45;9.45;;;;;;;;;;9505703;30;20842;-63
2023/06/02 01:22:08;;;;;;;10.40;8.60;;;;;;;;;;9503957;30;20125;-63
2023/06/02 01:27:06;;;;;;;8.07;7.38;;;;;;;;;;9503524;30;20516;-63
2023/06/02 01:32:00;;;;;;;8.52;7.75;;;;;;;;;;9502505;30;20554;-63
2023/06/02 01:36:55;;;;;;;10.23;8.00;;;;;;;;;;9503352;30;20059;-63
2023/06/02 01:41:50;;;;;;;10.77;7.18;;;;;;;;;;9502236;30;20153;-62
2023/06/02 01:46:45;;;;;;;10.95;7.30;;;;;;;;;;9502186;30;20064;-62
2023/06/02 01:51:39;;;;;;;8.80;7.55;;;;;;;;;;9504384;30;20487;-62
2023/06/02 01:56:33;;;;;;;13.57;8.48;;;;;;;;;;9502955;30;20052;-62
2023/06/02 02:01:28;;;;;;;12.32;9.68;;;;;;;;;;9502254;30;20056;-62
2023/06/02 02:06:29;;;;;;;11.70;10.43;;;;;;;;;;9517546;30;20086;-62
2023/06/02 02:11:21;;;;;;;14.23;9.18;;;;;;;;;;9503418;30;20602;-62
2023/06/02 02:16:16;;;;;;;18.60;10.48;;;;;;;;;;9503838;30;20062;-62
2023/06/02 02:21:10;;;;;;;12.32;10.90;;;;;;;;;;9502441;30;20059;-63
2023/06/02 02:26:04;;;;;;;12.10;10.77;;;;;;;;;;9502396;30;20408;-63
2023/06/02 02:30:58;;;;;;;13.85;11.25;;;;;;;;;;9503325;30;20111;-62
2023/06/02 02:35:56;;;;;;;11.30;10.10;;;;;;;;;;9511825;30;20549;-63
2023/06/02 02:40:50;;;;;;;13.65;10.40;;;;;;;;;;9508443;30;20072;-63
2023/06/02 02:45:43;;;;;;;11.30;9.77;;;;;;;;;;9510084;30;20056;-62
2023/06/02 02:50:37;;;;;;;13.80;10.30;;;;;;;;;;9507108;30;20052;-62
2023/06/02 02:55:33;;;;;;;13.05;11.73;;;;;;;;;;9507614;30;20437;-62
2023/06/02 03:00:27;;;;;;;12.48;11.35;;;;;;;;;;9508858;30;20619;-62
2023/06/02 03:05:20;;;;;;;12.90;11.65;;;;;;;;;;9508030;30;20052;-62
2023/06/02 03:10:13;;;;;;;12.63;11.07;;;;;;;;;;9481995;30;20148;-62
2023/06/02 03:15:10;;;;;;;17.15;10.98;;;;;;;;;;9458137;30;20052;-62
2023/06/02 03:20:08;;;;;;;14.32;10.65;;;;;;;;;;9500065;30;20056;-62
2023/06/02 03:25:05;;;;;;;14.35;10.60;;;;;;;;;;9507345;30;20056;-62
2023/06/02 03:30:00;;;;;;;14.35;10.18;;;;;;;;;;9507937;30;20048;-62
2023/06/02 03:34:58;;;;;;;13.43;11.73;;;;;;;;;;9493222;30;20078;-62
2023/06/02 03:39:51;;;;;;;12.48;11.35;;;;;;;;;;9506234;30;20063;-62
2023/06/02 03:44:46;;;;;;;15.13;12.35;;;;;;;;;;9506819;30;20139;-62
2023/06/02 03:49:39;;;;;;;14.60;13.15;;;;;;;;;;9506653;30;20060;-62
2023/06/02 03:54:33;;;;;;;12.88;10.77;;;;;;;;;;9506230;30;20147;-62
2023/06/02 03:59:27;;;;;;;13.52;11.90;;;;;;;;;;9507485;30;20060;-62
2023/06/02 04:04:21;;;;;;;19.50;12.90;;;;;;;;;;9506231;30;20096;-62
2023/06/02 04:09:14;;;;;;;16.17;12.32;;;;;;;;;;9505160;30;20048;-62
2023/06/02 04:14:10;;;;;;;13.38;11.93;;;;;;;;;;9519790;30;20075;-62
2023/06/02 04:19:07;;;;;;;13.65;12.35;;;;;;;;;;9505543;30;20070;-63
2023/06/02 04:24:02;;;;;;;13.77;12.55;;;;;;;;;;9503912;30;20468;-62
2023/06/02 04:28:56;;;;;;;14.77;13.35;;;;;;;;;;9504669;30;20134;-63
2023/06/02 04:33:50;;;;;;;17.27;13.27;;;;;;;;;;9484986;30;20060;-62
2023/06/02 04:38:45;;;;;;;14.98;12.20;;;;;;;;;;9518331;30;20059;-62
2023/06/02 04:43:41;;;;;;;11.90;10.75;;;;;;;;;;9505521;30;20083;-62
2023/06/02 04:48:40;;;;;;;15.80;10.88;;;;;;;;;;9503966;30;20471;-62
2023/06/02 04:53:33;;;;;;;19.63;13.18;;;;;;;;;;9505192;30;20052;-62
2023/06/02 04:58:26;;;;;;;17.10;12.68;;;;;;;;;;9505058;30;20056;-62
2023/06/02 05:03:19;;;;;;;13.65;12.15;;;;;;;;;;9505962;30;20057;-63
2023/06/02 05:08:13;;;;;;;14.48;13.07;;;;;;;;;;9503515;30;20187;-62
2023/06/02 05:13:07;;;;;;;13.32;12.02;;;;;;;;;;9503575;30;20139;-62
2023/06/02 05:18:00;;;;;;;13.50;12.05;;;;;;;;;;9502472;30;20101;-62
2023/06/02 05:22:53;;;;;;;12.98;11.57;;;;;;;;;;9502446;30;20052;-62
2023/06/02 05:27:47;;;;;;;13.30;10.68;;;;;;;;;;9472467;30;20143;-64
2023/06/02 05:32:50;;;;;;;11.07;9.93;;;;;;;;;;9501077;30;20064;-62
2023/06/02 05:37:45;;;;;;;15.15;10.40;;;;;;;;;;9502145;30;20090;-62
2023/06/02 05:42:38;;;;;;;10.80;9.80;;;;;;;;;;9502579;30;20544;-62
2023/06/02 05:47:33;;;;;;;12.85;11.52;;;;;;;;;;9502713;30;20068;-62
2023/06/02 05:52:26;;;;;;;16.63;11.73;;;;;;;;;;9497359;30;20052;-62
2023/06/02 05:57:21;;;;;;;13.20;11.48;;;;;;;;;;9497363;30;20401;-62
2023/06/02 06:02:18;;;;;;;;;;;;;;;;;;9487637;30;20052;-62
2023/06/02 06:07:10;;;;;;;13.95;10.68;;;;;;;;;;9474128;30;19978;-62
2023/06/02 06:12:04;;;;;;;12.82;11.52;;;;;;;;;;9480800;30;20517;-66
2023/06/02 06:16:59;;;;;;;13.52;11.82;;;;;;;;;;9506712;30;20131;-65
2023/06/02 06:21:53;;;;;;;18.98;12.70;;;;;;;;;;9493562;30;20068;-66
2023/06/02 06:26:48;;;;;;;16.52;12.32;;;;;;;;;;9511795;30;20052;-70
2023/06/02 06:31:42;;;;;;;16.95;12.35;;;;;;;;;;9497633;30;20125;-65
2023/06/02 06:36:36;;;;;;;15.75;12.10;;;;;;;;;;9494182;30;20147;-64
2023/06/02 06:41:30;;;;;;;14.43;11.63;;;;;;;;;;9499905;30;20394;-62
2023/06/02 06:46:27;;;;;;;12.82;11.63;;;;;;;;;;9507927;30;20052;-62
2023/06/02 06:51:21;;;;;;;13.75;11.05;;;;;;;;;;9494821;30;20048;-62
2023/06/02 06:56:15;;;;;;;14.50;11.05;;;;;;;;;;9486220;30;20109;-62
2023/06/02 07:01:10;;;;;;;15.20;11.32;;;;;;;;;;9495631;30;20060;-62
2023/06/02 07:06:03;;;;;;;11.50;10.30;;;;;;;;;;9486926;30;20501;-63
2023/06/02 07:10:58;;;;;;;12.82;11.65;;;;;;;;;;9498400;30;20064;-63
2023/06/02 07:15:51;;;;;;;13.88;10.27;;;;;;;;;;9489030;30;20451;-63
2023/06/02 07:20:46;;;;;;;10.57;9.48;;;;;;;;;;9520586;30;20433;-63
2023/06/02 07:25:40;;;;;;;10.30;9.40;;;;;;;;;;9509288;30;20060;-63
2023/06/02 07:30:35;;;;;;;11.27;9.93;;;;;;;;;;9509122;30;20118;-63
2023/06/02 07:35:30;;;;;;;14.38;10.65;;;;;;;;;;9507239;30;20076;-63
2023/06/02 07:40:23;;;;;;;10.75;7.93;;;;;;;;;;9507718;30;20067;-63
2023/06/02 07:45:16;;;;;;;11.57;10.18;;;;;;;;;;9507246;30;20563;-64
2023/06/02 07:50:11;;;;;;;10.27;8.75;;;;;;;;;;9508138;30;20060;-63
2023/06/02 07:55:04;;;;;;;12.65;9.02;;;;;;;;;;9506303;30;20142;-64
2023/06/02 07:59:57;;;;;;;11.00;9.07;;;;;;;;;;9502762;30;20052;-64
2023/06/02 08:04:51;;;;;;;10.20;9.20;;;;;;;;;;9501350;30;20118;-64
2023/06/02 08:09:47;;;;;;;12.30;9.82;;;;;;;;;;9499228;30;20136;-63
2023/06/02 08:14:40;;;;;;;13.02;9.25;;;;;;;;;;9506427;30;20087;-64
2023/06/02 08:19:36;;;;;;;12.88;9.65;;;;;;;;;;9507234;30;20094;-64
2023/06/02 08:24:31;;;;;;;11.90;10.70;;;;;;;;;;9506609;30;20059;-64
2023/06/02 08:29:26;;;;;;;10.68;9.57;;;;;;;;;;9506115;30;20056;-64
2023/06/02 08:34:24;;;;;;;11.63;10.48;;;;;;;;;;9507166;30;20075;-63
2023/06/02 08:39:18;;;;;;;10.18;9.07;;;;;;;;;;9503722;30;20056;-63
2023/06/02 08:44:13;;;;;;;9.50;8.60;;;;;;;;;;9498919;30;20056;-63
2023/06/02 08:49:08;;;;;;;14.10;10.02;;;;;;;;;;9499800;30;20059;-63
2023/06/02 08:54:02;;;;;;;11.60;10.38;;;;;;;;;;9499492;30;20090;-63
2023/06/02 08:58:55;;;;;;;11.68;10.30;;;;;;;;;;9498202;30;20143;-63
2023/06/02 09:03:49;;;;;;;13.68;11.60;;;;;;;;;;9514710;30;20083;-63
2023/06/02 09:09:20;;;;;;;16.08;10.57;;;;;;;;;;9497241;30;20661;-62
2023/06/02 09:14:20;;;;;;;18.80;11.52;;;;;;;;;;9491575;30;20090;-63
2023/06/02 09:19:13;;;;;;;16.95;12.25;;;;;;;;;;9494153;30;20056;-63
2023/06/02 09:24:07;;;;;;;15.65;10.98;;;;;;;;;;9494635;30;20066;-63
2023/06/02 09:29:10;;;;;;;14.80;10.52;;;;;;;;;;9486709;30;20722;-63
2023/06/02 09:34:04;;;;;;;17.70;10.38;;;;;;;;;;9500903;30;20064;-62
2023/06/02 09:38:58;;;;;;;12.68;11.18;;;;;;;;;;9492713;30;20069;-64
2023/06/02 09:43:53;;;;;;;15.20;11.38;;;;;;;;;;9487115;30;20072;-64
2023/06/02 09:48:57;;;;;;;13.35;9.57;;;;;;;;;;9492711;30;20084;-65
2023/06/02 09:53:51;;;;;;;12.40;11.10;;;;;;;;;;9490621;30;20163;-73
2023/06/02 09:58:45;;;;;;;12.27;11.00;;;;;;;;;;9496573;30;20075;-73
2023/06/02 10:03:42;;;;;;;12.88;10.98;;;;;;;;;;9491589;30;20087;-73
2023/06/02 10:09:00;;;;;;;10.38;9.45;;;;;;;;;;9488537;30;20135;-69
2023/06/02 10:14:07;;;;;;;12.63;10.13;;;;;;;;;;9497986;30;20506;-72
2023/06/02 10:19:29;;;;;;;13.23;10.63;;;;;;;;;;9498221;30;20492;-74
2023/06/02 10:24:40;;;;;;;16.42;10.52;;;;;;;;;;9495587;30;20052;-73
2023/06/02 10:29:35;;;;;;;12.13;10.68;;;;;;;;;;9508532;30;20099;-77
2023/06/02 10:34:34;;;;;;;11.20;9.98;;;;;;;;;;9502252;30;20060;-74
2023/06/02 10:39:50;;;;;;;10.63;9.52;;;;;;;;;;9504138;30;20497;-74
2023/06/02 10:44:44;;;;;;;15.30;9.93;;;;;;;;;;9502641;30;20132;-65
2023/06/02 10:50:02;;;;;;;12.75;10.75;;;;;;;;;;9492202;30;20464;-75
2023/06/02 10:55:12;;;;;;;11.45;9.63;;;;;;;;;;9501029;30;20508;-75
2023/06/02 11:00:35;;;;;;;18.95;11.32;;;;;;;;;;9492605;30;20044;-74
2023/06/02 11:05:30;;;;;;;10.68;9.25;;;;;;;;;;9498823;30;20059;-74
2023/06/02 11:10:48;;;;;;;10.68;8.00;;;;;;;;;;9501477;30;20520;-74
2023/06/02 11:16:06;;;;;;;8.45;6.22;;;;;;;;;;9493829;30;20079;-74
2023/06/02 11:21:16;;;;;;;12.02;9.07;;;;;;;;;;9498539;30;20060;-76
2023/06/02 11:26:13;;;;;;;25.15;18.27;;;;;;;;;;9504198;30;20059;-72
2023/06/02 11:31:13;;;;;;;12.88;8.60;;;;;;;;;;9503093;30;20058;-75
2023/06/02 11:36:08;;;;;;;12.18;6.22;;;;;;;;;;9502998;30;20425;-63
2023/06/02 11:41:10;;;;;;;6.97;5.65;;;;;;;;;;9500645;30;20406;-63
2023/06/02 11:46:09;;;;;;;7.55;6.47;;;;;;;;;;9501294;30;20102;-62
2023/06/02 11:51:02;;;;;;;7.63;6.82;;;;;;;;;;9495883;30;20052;-70
2023/06/02 11:55:56;;;;;;;7.13;6.43;;;;;;;;;;9501202;30;20139;-70
2023/06/02 12:00:51;;;;;;;10.45;5.93;;;;;;;;;;9495484;30;20060;-70
2023/06/02 12:05:47;;;;;;;7.47;5.57;;;;;;;;;;9511373;30;21752;-70
2023/06/02 12:10:42;;;;;;;8.80;5.40;;;;;;;;;;9503415;30;20117;-69
2023/06/02 12:15:35;;;;;;;;;;;;;;;;;;9513776;30;20512;-68
2023/06/02 12:20:41;;;;;;;9.10;6.20;;;;;;;;;;9498526;30;19956;-84
2023/06/02 12:25:35;;;;;;;9.60;5.50;;;;;;;;;;9500034;30;20060;-71
2023/06/02 12:30:28;;;;;;;8.70;5.28;;;;;;;;;;9501345;30;20060;-71
2023/06/02 12:35:21;;;;;;;8.13;4.57;;;;;;;;;;9488641;30;20065;-70
2023/06/02 12:40:16;;;;;;;9.88;4.97;;;;;;;;;;9488648;30;20399;-70
2023/06/02 12:45:11;;;;;;;8.25;5.63;;;;;;;;;;9483364;30;20062;-68
2023/06/02 12:50:08;;;;;;;;;;;;;;;;;;9493920;30;20140;-68
2023/06/02 12:55:01;;;;;;;8.80;4.53;;;;;;;;;;9491638;30;19935;-66
2023/06/02 12:59:55;;;;;;;6.87;4.90;;;;;;;;;;9502809;30;20390;-67
2023/06/02 13:04:49;;;;;;;8.48;4.72;;;;;;;;;;9504010;30;20501;-67
2023/06/02 13:09:43;;;;;;;6.15;4.65;;;;;;;;;;9502715;30;20056;-67
2023/06/02 13:14:37;;;;;;;7.68;4.07;;;;;;;;;;9501108;30;20048;-67
2023/06/02 13:19:31;;;;;;;5.60;4.03;;;;;;;;;;9502135;30;20088;-67
2023/06/02 13:24:24;;;;;;;10.85;4.28;;;;;;;;;;9500879;30;20084;-67
2023/06/02 13:29:18;;;;;;;6.78;4.40;;;;;;;;;;9505140;30;20048;-67
2023/06/02 13:34:12;;;;;;;7.03;3.72;;;;;;;;;;9504411;30;20163;-68
2023/06/02 13:39:05;;;;;;;7.50;4.20;;;;;;;;;;9503039;30;20143;-67
2023/06/02 13:44:00;;;;;;;5.97;4.13;;;;;;;;;;9502976;30;20064;-67
2023/06/02 13:48:54;;;;;;;5.10;3.33;;;;;;;;;;9503322;30;20068;-67
2023/06/02 13:53:48;;;;;;;4.75;3.58;;;;;;;;;;9503570;30;20060;-66
2023/06/02 13:58:42;;;;;;;5.20;3.67;;;;;;;;;;9504228;30;20059;-67
2023/06/02 14:03:35;;;;;;;4.78;4.07;;;;;;;;;;9503943;30;20064;-67
2023/06/02 14:08:28;;;;;;;5.63;3.42;;;;;;;;;;9501083;30;20114;-67
2023/06/02 14:13:21;;;;;;;8.60;4.15;;;;;;;;;;9488806;30;20177;-67
2023/06/02 14:18:15;;;;;;;5.03;4.40;;;;;;;;;;9477084;30;20064;-66
2023/06/02 14:23:08;;;;;;;5.32;4.30;;;;;;;;;;9502545;30;20106;-66
2023/06/02 14:28:01;;;;;;;6.70;5.82;;;;;;;;;;9518626;30;20063;-66
2023/06/02 14:32:54;;;;;;;5.47;4.97;;;;;;;;;;9510551;30;20103;-66
2023/06/02 14:37:48;;;;;;;5.35;4.95;;;;;;;;;;9508558;30;20055;-66
2023/06/02 14:42:41;;;;;;;7.18;5.63;;;;;;;;;;9510438;30;20067;-66
2023/06/02 14:47:33;;;;;;;9.73;5.25;;;;;;;;;;9510645;30;20060;-66
2023/06/02 14:52:27;;;;;;;11.68;4.93;;;;;;;;;;9509425;30;20161;-66
2023/06/02 14:57:21;;;;;;;8.63;4.90;;;;;;;;;;9509583;30;20466;-66
2023/06/02 15:02:16;;;;;;;7.07;3.63;;;;;;;;;;9509075;30;20052;-66
2023/06/02 15:07:09;;;;;;;3.67;3.10;;;;;;;;;;9508675;30;20079;-66
2023/06/02 15:12:07;;;;;;;4.57;3.47;;;;;;;;;;9510275;30;20068;-66
2023/06/02 15:17:01;;;;;;;6.37;3.83;;;;;;;;;;9509528;30;20060;-66
2023/06/02 15:21:56;;;;;;;6.47;4.63;;;;;;;;;;9508310;30;20072;-66
2023/06/02 15:26:49;;;;;;;20.70;5.43;;;;;;;;;;9508304;30;20139;-66
2023/06/02 15:31:44;;;;;;;5.80;4.22;;;;;;;;;;9509150;30;20520;-66
2023/06/02 15:36:37;;;;;;;9.00;5.07;;;;;;;;;;9508860;30;20060;-66
2023/06/02 15:41:32;;;;;;;12.15;5.65;;;;;;;;;;9506763;30;20052;-66
2023/06/02 15:46:26;;;;;;;12.32;5.75;;;;;;;;;;9506573;30;20056;-68
2023/06/02 15:51:19;;;;;;;6.28;5.70;;;;;;;;;;9507327;30;20417;-68
2023/06/02 15:56:13;;;;;;;6.00;5.40;;;;;;;;;;9522099;30;20056;-67
2023/06/02 16:01:05;;;;;;;6.15;4.88;;;;;;;;;;9521828;30;20386;-68
2023/06/02 16:05:59;;;;;;;7.25;5.13;;;;;;;;;;9506544;29;20098;-68
2023/06/02 16:10:53;;;;;;;7.65;5.90;;;;;;;;;;9506310;30;20056;-67
2023/06/02 16:15:47;;;;;;;5.63;5.00;;;;;;;;;;9520580;30;20064;-67
2023/06/02 16:20:41;;;;;;;5.38;4.60;;;;;;;;;;9505673;30;20509;-67
2023/06/02 16:25:35;;;;;;;6.75;5.30;;;;;;;;;;9506097;30;20529;-67
2023/06/02 16:30:28;;;;;;;8.20;5.00;;;;;;;;;;9505836;30;20105;-67
2023/06/02 16:35:22;;;;;;;6.75;4.85;;;;;;;;;;9505668;30;20387;-68
2023/06/02 16:40:15;;;;;;;5.95;4.40;;;;;;;;;;9505553;30;20056;-67
2023/06/02 16:45:11;;;;;;;8.90;5.00;;;;;;;;;;9502499;30;20059;-67
2023/06/02 16:50:07;;;;;;;5.88;5.18;;;;;;;;;;9496878;30;20485;-71
2023/06/02 16:55:01;;;;;;;9.63;4.60;;;;;;;;;;9500972;30;20052;-75
2023/06/02 16:59:54;;;;;;;5.15;4.25;;;;;;;;;;9499674;30;20064;-75
2023/06/02 17:04:48;;;;;;;5.25;4.75;;;;;;;;;;9501389;30;20068;-75
2023/06/02 17:09:42;;;;;;;6.85;4.10;;;;;;;;;;9501051;30;20095;-75
2023/06/02 17:14:36;;;;;;;7.03;3.83;;;;;;;;;;9501233;30;20109;-75
2023/06/02 17:19:29;;;;;;;4.53;4.13;;;;;;;;;;9517923;30;20504;-75
2023/06/02 17:24:25;;;;;;;7.00;4.40;;;;;;;;;;9489493;30;20114;-75
2023/06/02 17:29:18;;;;;;;4.47;3.80;;;;;;;;;;9504452;29;20088;-69
2023/06/02 17:34:11;;;;;;;5.03;4.20;;;;;;;;;;9504809;30;20139;-69
2023/06/02 17:39:04;;;;;;;6.55;4.55;;;;;;;;;;9504280;30;20144;-69
2023/06/02 17:43:59;;;;;;;4.85;4.07;;;;;;;;;;9499869;30;20458;-69
2023/06/02 17:48:53;;;;;;;4.57;3.50;;;;;;;;;;9501462;30;20056;-69
2023/06/02 17:53:47;;;;;;;4.57;3.85;;;;;;;;;;9513046;30;20068;-68
2023/06/02 17:58:40;;;;;;;3.83;3.42;;;;;;;;;;9498746;30;20086;-69
2023/06/02 18:03:34;;;;;;;5.88;4.40;;;;;;;;;;9520492;30;20052;-70
2023/06/02 18:08:28;;;;;;;3.92;3.60;;;;;;;;;;9428121;30;20053;-67
2023/06/02 18:13:22;;;;;;;8.35;3.92;;;;;;;;;;9430536;30;20418;-67
2023/06/02 18:18:16;;;;;;;4.63;3.95;;;;;;;;;;9427186;30;20068;-69
2023/06/02 18:23:10;;;;;;;5.25;3.25;;;;;;;;;;9431755;30;20057;-68
2023/06/02 18:28:03;;;;;;;11.00;3.60;;;;;;;;;;9503137;30;20149;-69
2023/06/02 18:32:57;;;;;;;8.73;3.45;;;;;;;;;;9500242;30;20056;-67
2023/06/02 18:37:50;;;;;;;5.65;3.53;;;;;;;;;;9505336;30;20060;-67
2023/06/02 18:42:44;;;;;;;4.68;3.20;;;;;;;;;;9506172;30;20044;-65
2023/06/02 18:47:38;;;;;;;5.32;4.00;;;;;;;;;;9497394;30;20080;-67
2023/06/02 18:52:34;;;;;;;6.13;4.00;;;;;;;;;;9496326;30;20052;-67
2023/06/02 18:57:28;;;;;;;4.05;3.45;;;;;;;;;;9496830;30;20520;-67
2023/06/02 19:02:21;;;;;;;9.75;3.90;;;;;;;;;;9495740;30;20382;-66
2023/06/02 19:07:15;;;;;;;5.22;4.72;;;;;;;;;;9494996;30;20712;-67
2023/06/02 19:12:09;;;;;;;7.38;4.97;;;;;;;;;;9502377;30;20064;-66
2023/06/02 19:17:03;;;;;;;6.32;4.38;;;;;;;;;;9507039;30;20143;-67
2023/06/02 19:21:57;;;;;;;3.97;3.58;;;;;;;;;;9507366;30;20151;-64
2023/06/02 19:26:51;;;;;;;6.25;3.88;;;;;;;;;;9511677;30;20059;-65
2023/06/02 19:31:45;;;;;;;6.43;3.65;;;;;;;;;;9507563;29;20090;-65
2023/06/02 19:36:40;;;;;;;6.82;3.42;;;;;;;;;;9509258;30;20056;-66
2023/06/02 19:41:33;;;;;;;6.15;3.40;;;;;;;;;;9503370;30;20060;-65
2023/06/02 19:46:28;;;;;;;4.40;4.00;;;;;;;;;;9508088;30;20063;-64
2023/06/02 19:51:22;;;;;;;6.13;4.00;;;;;;;;;;9510579;30;20053;-66
2023/06/02 19:56:15;;;;;;;6.93;4.03;;;;;;;;;;9519886;30;20048;-67
2023/06/02 20:01:10;;;;;;;8.80;4.82;;;;;;;;;;9505904;30;20060;-69
2023/06/02 20:06:08;;;;;;;9.85;4.03;;;;;;;;;;9500714;30;20049;-79
2023/06/02 20:11:07;;;;;;;7.68;5.57;;;;;;;;;;9495139;30;20057;-80
2023/06/02 20:16:02;;;;;;;6.05;4.75;;;;;;;;;;9502927;30;20532;-80
2023/06/02 20:20:59;;;;;;;8.75;6.95;;;;;;;;;;9489707;30;20087;-82
2023/06/02 20:25:56;;;;;;;9.73;6.47;;;;;;;;;;9506089;30;20513;-71
2023/06/02 20:30:50;;;;;;;6.60;6.00;;;;;;;;;;9490715;30;20131;-71
2023/06/02 20:35:43;;;;;;;7.00;5.38;;;;;;;;;;9497406;29;20059;-71
2023/06/02 20:40:37;;;;;;;8.02;5.75;;;;;;;;;;9504356;30;20067;-71
2023/06/02 20:45:31;;;;;;;5.05;4.55;;;;;;;;;;9501248;30;20152;-70
2023/06/02 20:50:26;;;;;;;5.00;4.15;;;;;;;;;;9498559;30;20056;-71
2023/06/02 20:55:23;;;;;;;6.80;4.75;;;;;;;;;;9498470;30;20141;-73
2023/06/02 21:00:17;;;;;;;6.45;4.53;;;;;;;;;;9491108;30;20060;-76
2023/06/02 21:05:11;;;;;;;5.82;4.10;;;;;;;;;;9498509;30;20101;-80
2023/06/02 21:10:06;;;;;;;4.90;4.50;;;;;;;;;;9504096;30;20579;-77
2023/06/02 21:14:59;;;;;;;38.40;7.22;;;;;;;;;;9494704;30;20056;-82
2023/06/02 21:19:53;;;;;;;5.90;4.68;;;;;;;;;;9485163;30;20520;-72
2023/06/02 21:24:46;;;;;;;6.60;5.97;;;;;;;;;;9491897;30;20070;-73
2023/06/02 21:29:42;;;;;;;6.75;4.93;;;;;;;;;;9496777;30;20071;-72
2023/06/02 21:34:36;;;;;;;11.07;7.10;;;;;;;;;;9496258;30;20053;-72
2023/06/02 21:39:29;;;;;;;13.18;8.13;;;;;;;;;;9491213;30;20052;-72
2023/06/02 21:44:25;;;;;;;11.95;8.68;;;;;;;;;;9498327;30;20480;-72
2023/06/02 21:49:18;;;;;;;10.40;6.22;;;;;;;;;;9495599;30;20509;-72
2023/06/02 21:54:11;;;;;;;6.47;4.88;;;;;;;;;;9496027;30;20137;-72
2023/06/02 21:59:05;;;;;;;10.07;6.43;;;;;;;;;;9497117;30;20056;-72
2023/06/02 22:03:58;;;;;;;3.85;3.42;;;;;;;;;;9499637;30;20102;-72
2023/06/02 22:08:52;;;;;;;10.23;5.38;;;;;;;;;;9492450;30;20125;-72
2023/06/02 22:13:46;;;;;;;8.88;5.60;;;;;;;;;;9514213;30;20142;-72
2023/06/02 22:18:39;;;;;;;6.10;5.50;;;;;;;;;;9499759;30;20517;-72
2023/06/02 22:23:32;;;;;;;7.25;5.55;;;;;;;;;;9498737;30;20562;-72
2023/06/02 22:28:27;;;;;;;10.35;5.20;;;;;;;;;;9501405;30;20068;-72
2023/06/02 22:33:21;;;;;;;9.02;5.90;;;;;;;;;;9499176;30;20468;-72
2023/06/02 22:38:15;;;;;;;8.05;5.07;;;;;;;;;;9497959;30;20060;-72
2023/06/02 22:43:09;;;;;;;8.57;5.50;;;;;;;;;;9499814;30;20113;-74
2023/06/02 22:48:04;;;;;;;5.97;4.13;;;;;;;;;;9494441;30;20061;-73
2023/06/02 22:52:57;;;;;;;3.92;3.53;;;;;;;;;;9499655;30;20111;-73
2023/06/02 22:57:50;;;;;;;8.20;4.32;;;;;;;;;;9502350;30;20410;-73
2023/06/02 23:02:44;;;;;;;5.85;4.70;;;;;;;;;;9500611;30;20482;-73
2023/06/02 23:07:38;;;;;;;7.38;5.20;;;;;;;;;;9502300;30;20087;-74
2023/06/02 23:12:33;;;;;;;12.18;6.85;;;;;;;;;;9492667;30;20056;-73
2023/06/02 23:17:26;;;;;;;8.77;7.85;;;;;;;;;;9498828;29;20087;-73
2023/06/02 23:22:19;;;;;;;12.68;9.05;;;;;;;;;;9493008;30;20073;-73
2023/06/02 23:27:13;;;;;;;9.20;8.23;;;;;;;;;;9499827;30;20056;-73
2023/06/02 23:32:08;;;;;;;9.70;8.50;;;;;;;;;;9501237;30;20056;-73
2023/06/02 23:37:01;;;;;;;10.27;9.27;;;;;;;;;;9500994;30;20056;-73
2023/06/02 23:41:54;;;;;;;9.35;8.40;;;;;;;;;;9503199;29;20496;-73
2023/06/02 23:46:49;;;;;;;8.57;7.78;;;;;;;;;;9497586;30;20106;-75
2023/06/02 23:51:43;;;;;;;7.38;6.15;;;;;;;;;;9502151;30;20133;-75
2023/06/02 23:56:36;;;;;;;8.63;7.40;;;;;;;;;;9481881;30;20418;-75
